WSSS/SIN METAR and TAF weather

Enter ICAO airport designator
Station Type Date Time Source
WSSS METAR 2021/07/31 00:00 UTC NOAA

WSSS 310000Z 13005KT 9999 FEW015 FEW018TCU BKN300 29/26 Q1011 NOSIG


Station Type Date Time Source
WSSS Decoded METAR 2021/07/31 00:00 UTC NOAA

Singapore / Changi Airport, Singapore (WSSS) 01-22N 103-59E 16M
Jul 30, 2021 - 08:00 PM EDT / 2021.07.31 0000 UTC
Wind: from the SE (130 degrees) at 6 MPH (5 KT):0
Visibility: greater than 7 mile(s):0
Sky conditions: mostly cloudy
Weather: Towering cumulus clouds observed
Temperature: 84 F (29 C)
Dew Point: 78 F (26 C)
Relative Humidity: 83%
Pressure (altimeter): 29.85 in. Hg (1011 hPa)
ob: WSSS 310000Z 13005KT 9999 FEW015 FEW018TCU BKN300 29/26 Q1011 NOSIG
cycle: 0

Station Type Date Time Source
WSSS TAF 2021/07/30 18:17 UTC NOAA

TAF WSSS 301700Z 3018/0100 15010KT 9999 FEW015 BKN020
TEMPO 3023/3102 3000 TSRA FEW012CB BKN015

Example: see airport list